Time;durP1;ratioP1;P1;durP2;ratioP2;P2;SDS_P1;SDS_P2;PMS_P1;PMS_P2;Temp;Humidity;BMP_temperature;BMP_pressure;BME280_temperature;BME280_humidity;BME280_pressure;Samples;Min_cycle;Max_cycle;Signal;HPM_P1;HPM_P2
2021/12/21 00:01:27;;;;;;;36.10;19.50;;;-3.60;99.90;;;;;;4976742;28;20054;-93
2021/12/21 00:04:27;;;;;;;34.77;19.53;;;-4.30;99.90;;;;;;4961059;28;20502;-92
2021/12/21 00:10:09;;;;;;;35.43;18.97;;;-3.60;99.90;;;;;;5318846;23;20063;-93
2021/12/21 00:13:00;;;;;;;;;;;;;;;;;;;;;
2021/12/21 00:30:22;;;;;;;38.17;18.83;;;-3.80;99.90;;;;;;4807260;29;20056;-92
2021/12/21 00:39:21;;;;;;;;;;;;;;;;;;;;;
2021/12/21 00:42:42;;;;;;;33.07;17.50;;;-4.00;99.90;;;;;;4977451;28;20057;-92
2021/12/21 00:45:12;;;;;;;36.37;17.03;;;-3.40;99.90;;;;;;4957452;28;20074;-92
2021/12/21 00:51:38;;;;;;;29.03;16.33;;;-3.30;99.90;;;;;;4858081;29;20163;-92
2021/12/21 00:54:38;;;;;;;28.10;13.63;;;-3.60;99.90;;;;;;4880649;29;20140;-92
2021/12/21 01:00:28;;;;;;;27.47;15.07;;;-3.80;99.90;;;;;;5286822;23;20066;-92
2021/12/21 01:04:00;;;;;;;29.60;14.73;;;-4.50;99.90;;;;;;4958103;28;20102;-92
2021/12/21 01:20:02;;;;;;;29.30;15.17;;;-4.40;99.90;;;;;;4927588;28;20074;-92
2021/12/21 01:51:05;;;;;;;;;;;;;;;;;;;;;
2021/12/21 01:58:25;;;;;;;22.53;10.67;;;-3.20;99.90;;;;;;4956409;29;20107;-93
2021/12/21 02:00:58;;;;;;;23.73;10.32;;;-4.20;99.90;;;;;;4905127;28;20039;-93
2021/12/21 02:03:53;;;;;;;19.27;9.60;;;-3.70;99.90;;;;;;4974415;29;20061;-93
2021/12/21 02:09:33;;;;;;;23.87;9.63;;;-3.70;99.90;;;;;;4931234;28;20066;-92
2021/12/21 02:12:19;;;;;;;19.23;9.57;;;-3.00;99.90;;;;;;4942717;28;20135;-93
2021/12/21 02:15:25;;;;;;;18.30;8.40;;;-3.10;99.90;;;;;;4919580;29;20118;-93
2021/12/21 02:24:19;;;;;;;20.47;8.83;;;-4.10;99.90;;;;;;4919524;29;20102;-93
2021/12/21 02:30:21;;;;;;;20.63;8.70;;;-3.70;99.90;;;;;;4919002;29;20079;-93
2021/12/21 02:32:50;;;;;;;18.33;8.43;;;-4.60;99.90;;;;;;4921234;29;20052;-94
2021/12/21 02:35:16;;;;;;;18.80;8.57;;;-3.80;99.90;;;;;;4919266;29;20040;-94
2021/12/21 02:38:11;;;;;;;18.47;9.47;;;-3.70;99.90;;;;;;4920578;29;20051;-92
2021/12/21 02:41:04;;;;;;;17.60;8.23;;;-4.30;99.90;;;;;;4928916;29;20141;-93
2021/12/21 02:43:36;;;;;;;20.45;9.65;;;-4.30;99.90;;;;;;4920482;29;20055;-93
2021/12/21 02:46:25;;;;;;;20.77;10.67;;;-5.10;99.90;;;;;;4919934;29;20055;-93
2021/12/21 02:49:40;;;;;;;21.07;9.87;;;-3.90;99.90;;;;;;4924194;29;20047;-93
2021/12/21 02:52:51;;;;;;;;;;;;;;;;;;;;;
2021/12/21 02:56:16;;;;;;;20.80;9.47;;;-2.90;99.90;;;;;;4915396;29;20055;-93
2021/12/21 02:59:22;;;;;;;22.17;9.93;;;-5.60;99.90;;;;;;4939851;29;20407;-94
2021/12/21 03:02:05;;;;;;;19.13;8.97;;;-3.10;99.90;;;;;;4938452;29;20047;-94
2021/12/21 03:04:31;;;;;;;19.80;9.37;;;-5.00;99.90;;;;;;4939699;29;20047;-93
2021/12/21 03:09:43;;;;;;;18.73;9.87;;;-4.50;99.90;;;;;;4936649;29;20133;-93
2021/12/21 03:16:23;;;;;;;21.17;10.50;;;-3.60;99.90;;;;;;4989346;23;20067;-93
2021/12/21 03:19:18;;;;;;;20.77;9.57;;;-3.40;99.90;;;;;;4900473;29;20086;-93
2021/12/21 03:25:37;;;;;;;21.23;10.57;;;-5.30;99.90;;;;;;4882855;29;20055;-93
2021/12/21 03:28:17;;;;;;;20.80;9.87;;;-4.80;99.90;;;;;;4882504;29;20523;-92
2021/12/21 03:30:59;;;;;;;23.03;9.57;;;-4.80;99.90;;;;;;4899655;29;20044;-93
2021/12/21 03:33:43;;;;;;;18.40;9.77;;;-3.30;99.90;;;;;;4882669;29;20490;-94
2021/12/21 03:36:41;;;;;;;26.75;10.50;;;-5.00;99.90;;;;;;4883530;29;20047;-93
2021/12/21 03:39:08;;;;;;;21.60;10.37;;;-4.20;99.90;;;;;;4845372;29;20050;-94
2021/12/21 03:41:36;;;;;;;24.63;11.77;;;-3.60;99.90;;;;;;4846394;29;20053;-93
2021/12/21 03:44:28;;;;;;;19.93;10.47;;;-3.10;99.90;;;;;;4882787;29;20076;-93
2021/12/21 03:50:02;;;;;;;28.73;10.83;;;-4.90;99.90;;;;;;4883950;29;20387;-93
2021/12/21 03:52:44;;;;;;;24.90;10.83;;;-4.60;99.90;;;;;;4924382;29;20032;-94
2021/12/21 03:55:27;;;;;;;24.97;12.43;;;-4.60;99.90;;;;;;4888108;29;20057;-93
2021/12/21 03:58:08;;;;;;;25.85;12.98;;;-5.80;99.90;;;;;;4886849;29;20048;-93
2021/12/21 04:00:36;;;;;;;22.20;10.70;;;-4.60;99.90;;;;;;4902782;29;20104;-92
2021/12/21 04:03:12;;;;;;;22.30;11.53;;;-4.70;99.90;;;;;;4898830;29;20075;-93
2021/12/21 04:06:20;;;;;;;22.33;11.43;;;-4.30;99.90;;;;;;4832645;29;20061;-93
2021/12/21 04:12:02;;;;;;;22.53;11.10;;;-4.50;99.90;;;;;;4864276;29;20057;-92
2021/12/21 04:14:33;;;;;;;24.90;11.37;;;-3.30;99.90;;;;;;4884509;29;20053;-93
2021/12/21 04:18:02;;;;;;;22.53;12.20;;;-4.70;99.90;;;;;;4886436;29;20098;-93
2021/12/21 04:20:41;;;;;;;26.30;12.57;;;-3.80;99.90;;;;;;4865450;29;20554;-94
2021/12/21 04:23:22;;;;;;;21.63;11.17;;;-3.80;99.90;;;;;;4862851;29;20110;-93
2021/12/21 04:26:01;;;;;;;25.93;11.40;;;-4.50;99.90;;;;;;4843877;29;20058;-94
2021/12/21 04:29:11;;;;;;;20.03;11.40;;;-5.10;99.90;;;;;;4835534;29;20060;-94
2021/12/21 04:31:41;;;;;;;26.50;13.17;;;-4.60;99.90;;;;;;4810545;29;20057;-93
2021/12/21 04:37:12;;;;;;;26.33;14.63;;;-3.80;99.90;;;;;;4823426;29;20050;-94
2021/12/21 04:40:04;;;;;;;28.33;14.20;;;-4.60;99.90;;;;;;4793297;29;20102;-94
2021/12/21 04:43:33;;;;;;;24.60;13.53;;;-5.30;99.90;;;;;;4786264;29;20176;-93
2021/12/21 04:46:02;;;;;;;24.47;13.97;;;-4.80;99.90;;;;;;4792375;29;20063;-93
2021/12/21 04:52:03;;;;;;;28.70;14.90;;;-3.20;99.90;;;;;;4846948;29;20136;-93
2021/12/21 04:54:58;;;;;;;28.77;15.23;;;-3.10;99.90;;;;;;4847055;29;20566;-92
2021/12/21 04:58:07;;;;;;;26.77;15.50;;;-4.00;99.90;;;;;;4880084;29;20108;-93
2021/12/21 05:01:07;;;;;;;28.00;15.73;;;-4.90;99.90;;;;;;4884463;29;20041;-93
2021/12/21 05:03:38;;;;;;;33.47;15.90;;;-4.30;99.90;;;;;;4970557;23;20116;-93
2021/12/21 05:06:50;;;;;;;28.17;15.47;;;-5.30;99.90;;;;;;4979362;28;20123;-94
2021/12/21 05:10:00;;;;;;;28.93;15.27;;;-4.70;99.90;;;;;;4978001;28;20101;-94
2021/12/21 05:13:00;;;;;;;30.30;15.77;;;-5.70;99.90;;;;;;4961070;28;20057;-94
2021/12/21 05:24:45;;;;;;;32.43;17.87;;;-5.20;99.90;;;;;;4959745;28;20039;-94
2021/12/21 05:27:25;;;;;;;42.03;20.60;;;-5.20;99.90;;;;;;4892015;28;20064;-93
2021/12/21 05:33:31;;;;;;;32.93;19.03;;;-4.40;99.90;;;;;;4963606;28;20075;-93
2021/12/21 05:36:04;;;;;;;38.30;19.90;;;-5.00;99.90;;;;;;4882723;29;20057;-91
2021/12/21 05:42:47;;;;;;;32.37;18.03;;;-4.80;99.90;;;;;;4915455;28;20027;-94
2021/12/21 05:48:41;;;;;;;35.47;19.03;;;-4.10;99.90;;;;;;4959820;28;20053;-93
2021/12/21 05:54:26;;;;;;;34.33;19.50;;;-4.10;99.90;;;;;;4885833;28;20139;-93
2021/12/21 06:03:15;;;;;;;31.90;17.10;;;-5.20;99.90;;;;;;4936347;29;20047;-92
2021/12/21 06:06:18;;;;;;;32.83;17.93;;;-4.00;99.90;;;;;;4898376;29;20063;-93
2021/12/21 06:09:47;;;;;;;;;;;;;;;;;;;;;
2021/12/21 06:26:28;;;;;;;36.43;19.63;;;-5.40;99.90;;;;;;4841515;29;20078;-92
2021/12/21 06:29:41;;;;;;;36.78;18.80;;;-5.30;99.90;;;;;;5051824;23;20032;-93
2021/12/21 06:38:59;;;;;;;40.23;21.80;;;-5.20;99.90;;;;;;4901235;29;20592;-93
2021/12/21 06:41:39;;;;;;;43.03;24.33;;;-5.20;99.90;;;;;;4903311;29;20610;-92
2021/12/21 06:44:42;;;;;;;47.83;25.80;;;-5.40;99.90;;;;;;4902387;29;20071;-93
2021/12/21 06:58:15;;;;;;;;;;;;;;;;;;;;;
2021/12/21 07:01:16;;;;;;;39.70;19.73;;;-5.20;99.90;;;;;;4902495;29;20074;-94
2021/12/21 07:04:42;;;;;;;34.70;20.20;;;-4.00;99.90;;;;;;4891901;29;20099;-94
2021/12/21 07:07:24;;;;;;;36.37;20.03;;;-5.80;99.90;;;;;;4901738;29;20049;-94
2021/12/21 07:10:00;;;;;;;35.30;20.03;;;-5.40;99.90;;;;;;4920299;29;20087;-93
2021/12/21 07:19:40;;;;;;;;;;;;;;;;;;;;;
2021/12/21 07:22:24;;;;;;;47.20;26.83;;;-4.60;99.90;;;;;;4908067;29;20059;-82
2021/12/21 07:24:56;;;;;;;47.97;26.37;;;-5.80;99.90;;;;;;4899071;29;20048;-83
2021/12/21 07:27:24;;;;;;;46.57;25.53;;;-5.60;99.90;;;;;;4919806;29;20112;-84
2021/12/21 07:29:50;;;;;;;46.13;26.63;;;-5.40;99.90;;;;;;4903940;29;20056;-84
2021/12/21 07:32:16;;;;;;;44.53;25.90;;;-5.50;99.90;;;;;;4904857;29;20052;-82
2021/12/21 07:34:42;;;;;;;37.47;22.73;;;-5.70;99.90;;;;;;4904053;29;20052;-83
2021/12/21 07:37:09;;;;;;;40.00;22.17;;;-4.50;99.90;;;;;;4918809;29;20044;-83
2021/12/21 07:39:50;;;;;;;39.30;21.97;;;-5.50;99.90;;;;;;4902557;29;20405;-84
2021/12/21 07:42:25;;;;;;;40.70;22.50;;;-5.70;99.90;;;;;;4905247;29;20091;-83
2021/12/21 07:44:51;;;;;;;41.33;23.60;;;-5.00;99.90;;;;;;4918691;29;20044;-84
2021/12/21 07:48:07;;;;;;;46.67;24.97;;;-6.70;99.90;;;;;;4917586;23;20492;-85
2021/12/21 07:50:58;;;;;;;49.63;27.20;;;-5.10;99.90;;;;;;4920199;29;20496;-83
2021/12/21 07:53:24;;;;;;;47.73;23.63;;;-5.50;99.90;;;;;;4920765;29;20044;-83
2021/12/21 07:56:03;;;;;;;44.50;23.50;;;-5.40;99.90;;;;;;4920844;29;20139;-83
2021/12/21 07:58:38;;;;;;;47.00;23.53;;;-5.40;99.90;;;;;;4918708;29;20070;-83
2021/12/21 08:01:07;;;;;;;43.93;23.60;;;-5.40;99.90;;;;;;4950247;29;20122;-83
2021/12/21 08:03:34;;;;;;;47.17;25.47;;;-5.40;99.90;;;;;;4921191;29;20150;-84
2021/12/21 08:06:13;;;;;;;49.73;25.33;;;-5.30;99.90;;;;;;4920170;29;20437;-83
2021/12/21 08:08:52;;;;;;;49.60;25.27;;;-5.20;99.90;;;;;;4921179;29;20095;-86
2021/12/21 08:14:19;;;;;;;48.27;25.50;;;-5.40;99.90;;;;;;4920662;29;20044;-84
2021/12/21 08:16:57;;;;;;;56.60;27.33;;;-5.50;99.90;;;;;;4920732;29;20506;-84
2021/12/21 08:19:23;;;;;;;47.43;24.67;;;-5.50;99.90;;;;;;4920408;29;20059;-84
2021/12/21 08:21:48;;;;;;;48.10;24.83;;;-4.00;99.90;;;;;;4920429;29;20044;-84
2021/12/21 08:26:43;;;;;;;46.63;23.83;;;-5.20;99.90;;;;;;4979456;23;20042;-83
2021/12/21 08:29:08;;;;;;;43.87;23.17;;;-5.70;99.90;;;;;;4959024;28;20495;-83
2021/12/21 08:31:34;;;;;;;40.27;23.27;;;-5.40;99.90;;;;;;4958833;28;20102;-83
2021/12/21 08:34:00;;;;;;;42.27;23.67;;;-5.30;99.90;;;;;;4957954;28;20133;-82
2021/12/21 08:36:41;;;;;;;45.83;24.73;;;-4.10;99.90;;;;;;4958664;28;20053;-83
2021/12/21 08:39:13;;;;;;;51.67;26.30;;;-5.30;99.90;;;;;;4957347;28;20499;-83
2021/12/21 08:41:51;;;;;;;47.60;25.43;;;-5.00;99.90;;;;;;4958858;28;20077;-83
2021/12/21 08:44:30;;;;;;;46.13;24.63;;;-5.00;99.90;;;;;;4958632;28;20043;-84
2021/12/21 08:47:02;;;;;;;43.23;24.53;;;-5.30;99.90;;;;;;4957198;28;20077;-84
2021/12/21 08:49:28;;;;;;;46.03;23.93;;;-5.00;99.90;;;;;;4957922;28;20043;-84
2021/12/21 08:51:55;;;;;;;47.10;24.63;;;-3.90;99.90;;;;;;4958339;28;20126;-84
2021/12/21 08:54:21;;;;;;;45.57;25.20;;;-5.10;99.90;;;;;;4962711;28;20066;-83
2021/12/21 08:56:49;;;;;;;52.57;26.10;;;-5.00;99.90;;;;;;4957964;28;20483;-83
2021/12/21 08:59:16;;;;;;;50.17;26.93;;;-4.10;99.90;;;;;;4957139;28;20458;-84
2021/12/21 09:01:45;;;;;;;46.50;24.50;;;-3.80;99.90;;;;;;4954486;28;20051;-83
2021/12/21 09:04:11;;;;;;;50.33;25.60;;;-4.80;99.90;;;;;;4958142;28;20093;-83
2021/12/21 09:06:37;;;;;;;46.03;26.47;;;-4.70;99.90;;;;;;4958062;28;20051;-83
2021/12/21 09:09:03;;;;;;;45.90;24.53;;;-4.80;99.90;;;;;;4957028;28;20134;-84
2021/12/21 09:11:29;;;;;;;45.13;25.37;;;-2.70;99.90;;;;;;4958540;28;20054;-84
2021/12/21 09:14:01;;;;;;;49.47;27.77;;;-4.70;99.90;;;;;;4957969;28;20097;-84
2021/12/21 09:16:26;;;;;;;48.93;25.83;;;-4.20;99.90;;;;;;4975473;28;20195;-83
2021/12/21 09:18:55;;;;;;;39.93;25.03;;;-4.70;99.90;;;;;;4957518;28;20499;-83
2021/12/21 09:21:30;;;;;;;45.13;25.63;;;-3.10;99.90;;;;;;4957433;28;20153;-83
2021/12/21 09:23:59;;;;;;;46.30;26.27;;;-4.10;99.90;;;;;;4975770;28;20515;-84
2021/12/21 09:26:25;;;;;;;48.50;27.30;;;-4.30;99.90;;;;;;4956098;28;20093;-84
2021/12/21 09:28:51;;;;;;;46.60;24.77;;;-3.70;99.90;;;;;;4956891;28;20129;-84
2021/12/21 09:31:17;;;;;;;48.73;26.20;;;-4.10;99.90;;;;;;4960872;28;20129;-85
2021/12/21 09:33:43;;;;;;;53.60;30.07;;;-4.00;99.90;;;;;;4958126;28;20046;-84
2021/12/21 09:36:09;;;;;;;65.57;37.40;;;-3.00;99.90;;;;;;4974197;28;20121;-84
2021/12/21 09:38:35;;;;;;;70.17;38.37;;;-3.90;99.90;;;;;;4957191;28;20114;-84
2021/12/21 09:41:01;;;;;;;62.30;36.60;;;-3.50;99.90;;;;;;4974428;28;20046;-83
2021/12/21 09:43:27;;;;;;;61.90;36.23;;;-3.50;99.90;;;;;;4955613;28;20047;-83
2021/12/21 09:45:55;;;;;;;67.57;39.80;;;-3.30;99.90;;;;;;4957191;28;20113;-84
2021/12/21 09:48:23;;;;;;;67.73;41.80;;;-3.30;99.90;;;;;;4974460;28;20062;-84
2021/12/21 09:50:49;;;;;;;79.63;46.77;;;-3.20;99.90;;;;;;4973894;28;20075;-83
2021/12/21 09:53:15;;;;;;;83.17;48.73;;;-3.20;99.90;;;;;;4957356;28;20043;-84
2021/12/21 09:56:00;;;;;;;87.90;50.97;;;-3.30;99.90;;;;;;4957374;28;20089;-83
2021/12/21 09:58:45;;;;;;;88.63;52.30;;;-1.10;99.90;;;;;;4956862;28;20047;-83
2021/12/21 10:01:22;;;;;;;;;;;-3.00;99.90;;;;;;4958361;28;20507;-84
2021/12/21 10:03:48;;;;;;;90.70;53.60;;;-2.50;99.90;;;;;;4964021;28;19906;-84
2021/12/21 10:06:16;;;;;;;102.70;57.83;;;-1.70;99.90;;;;;;4978882;28;20054;-85
2021/12/21 10:08:45;;;;;;;104.67;60.13;;;-1.00;99.90;;;;;;4962030;28;20487;-86
2021/12/21 10:11:39;;;;;;;105.93;57.57;;;-2.70;99.90;;;;;;4956807;28;20054;-86
2021/12/21 10:14:18;;;;;;;108.43;62.70;;;-1.30;99.90;;;;;;4957017;28;20047;-86
2021/12/21 10:17:06;;;;;;;105.67;61.47;;;-2.30;99.90;;;;;;4956414;28;20399;-85
2021/12/21 10:19:32;;;;;;;108.20;62.60;;;-2.00;99.90;;;;;;4955973;28;20137;-84
2021/12/21 10:22:11;;;;;;;108.87;64.63;;;-1.90;99.90;;;;;;4956284;28;20046;-84
2021/12/21 10:24:44;;;;;;;105.60;64.20;;;-1.80;99.90;;;;;;4956075;28;20039;-85
2021/12/21 10:27:10;;;;;;;107.93;65.43;;;-1.60;99.90;;;;;;4956337;28;20136;-84
2021/12/21 10:29:48;;;;;;;101.97;62.80;;;-1.50;99.90;;;;;;4973655;28;20047;-85
2021/12/21 10:32:23;;;;;;;94.87;58.43;;;-1.30;99.90;;;;;;4956054;28;20042;-84
2021/12/21 10:35:10;;;;;;;105.93;62.93;;;-1.20;99.90;;;;;;4955866;28;20043;-84
2021/12/21 10:37:38;;;;;;;86.90;56.30;;;-0.30;99.90;;;;;;4956262;28;20074;-84
2021/12/21 10:40:23;;;;;;;79.93;52.63;;;-0.90;99.90;;;;;;4955369;28;20054;-84
2021/12/21 10:43:02;;;;;;;93.77;60.40;;;-0.70;99.90;;;;;;4954560;28;20425;-83
2021/12/21 10:45:34;;;;;;;77.53;49.33;;;0.10;99.90;;;;;;4963768;28;20121;-84
2021/12/21 10:48:01;;;;;;;60.87;42.23;;;-0.40;99.90;;;;;;4955459;28;20074;-83
2021/12/21 10:50:29;;;;;;;55.83;37.30;;;0.20;99.90;;;;;;4953876;28;20121;-84
2021/12/21 10:52:59;;;;;;;49.90;33.87;;;-0.10;99.90;;;;;;4955283;28;20047;-83
2021/12/21 10:55:39;;;;;;;45.13;31.07;;;0.20;99.90;;;;;;4956908;28;20050;-83
2021/12/21 10:58:15;;;;;;;47.27;28.37;;;0.20;99.90;;;;;;4956453;28;20046;-83
2021/12/21 11:01:03;;;;;;;37.00;26.90;;;0.30;99.90;;;;;;4956417;28;20054;-83
2021/12/21 11:03:32;;;;;;;39.07;25.83;;;0.50;99.90;;;;;;4977492;28;20051;-83
2021/12/21 11:06:12;;;;;;;38.97;24.20;;;1.10;99.90;;;;;;4960108;28;20070;-83
2021/12/21 11:08:43;;;;;;;33.70;23.93;;;1.50;99.90;;;;;;4959855;28;20468;-83
2021/12/21 11:11:30;;;;;;;33.33;24.17;;;1.40;99.90;;;;;;4960475;28;20133;-83
2021/12/21 11:14:12;;;;;;;33.40;23.03;;;1.60;99.90;;;;;;4966272;28;20039;-84
2021/12/21 11:16:49;;;;;;;35.37;23.43;;;1.10;99.90;;;;;;4941249;29;20130;-84
2021/12/21 11:19:16;;;;;;;34.67;22.93;;;1.10;99.90;;;;;;4940930;29;20047;-82
2021/12/21 11:21:43;;;;;;;33.60;22.63;;;1.30;99.90;;;;;;4942516;29;20054;-82
2021/12/21 11:24:15;;;;;;;36.13;22.90;;;1.30;99.90;;;;;;4941794;29;20043;-82
2021/12/21 11:26:43;;;;;;;32.27;21.17;;;1.40;99.90;;;;;;4940453;29;20094;-82
2021/12/21 11:29:12;;;;;;;32.27;21.87;;;1.50;99.90;;;;;;4939774;29;20082;-84
2021/12/21 11:31:44;;;;;;;32.23;21.10;;;1.60;99.90;;;;;;4941204;29;20039;-82
2021/12/21 11:34:14;;;;;;;33.33;21.37;;;1.80;99.90;;;;;;4940531;29;20058;-83
2021/12/21 11:39:39;;;;;;;30.57;20.93;;;2.00;99.90;;;;;;4938893;29;20055;-83
2021/12/21 11:42:07;;;;;;;30.10;20.67;;;2.10;99.90;;;;;;4937745;29;20490;-85
2021/12/21 11:44:50;;;;;;;28.97;20.80;;;2.20;99.90;;;;;;4939237;29;20094;-84
2021/12/21 11:47:23;;;;;;;31.83;20.67;;;2.20;99.90;;;;;;4940641;29;20150;-85
2021/12/21 11:49:54;;;;;;;30.53;18.73;;;2.30;99.90;;;;;;4939152;29;20070;-84
2021/12/21 11:52:25;;;;;;;30.10;20.43;;;2.30;99.90;;;;;;4940340;29;20107;-85
2021/12/21 11:55:04;;;;;;;34.20;18.87;;;2.30;99.90;;;;;;4939460;29;20062;-84
2021/12/21 11:57:50;;;;;;;30.17;20.07;;;2.30;99.90;;;;;;4939791;29;20051;-83
2021/12/21 12:00:21;;;;;;;29.40;19.13;;;2.30;99.90;;;;;;4957817;28;20065;-83
2021/12/21 12:02:48;;;;;;;28.63;17.80;;;2.20;99.90;;;;;;4958413;28;20058;-82
2021/12/21 12:05:24;;;;;;;30.27;17.73;;;2.10;99.90;;;;;;4958991;28;20050;-83
2021/12/21 12:08:05;;;;;;;23.13;14.00;;;2.10;99.90;;;;;;4958933;28;20094;-83
2021/12/21 12:10:33;;;;;;;25.37;15.27;;;2.00;99.90;;;;;;4975236;28;20055;-83
2021/12/21 12:13:14;;;;;;;28.90;16.83;;;2.00;99.90;;;;;;4958739;28;20609;-83
2021/12/21 12:15:46;;;;;;;28.20;16.33;;;2.00;99.90;;;;;;4958355;28;20054;-83
2021/12/21 12:18:34;;;;;;;27.03;17.07;;;2.00;99.90;;;;;;4959077;28;20043;-83
2021/12/21 12:21:25;;;;;;;29.10;15.87;;;1.90;99.90;;;;;;4958742;28;20112;-83
2021/12/21 12:24:00;;;;;;;28.80;15.67;;;1.90;99.90;;;;;;4958618;28;20127;-86
2021/12/21 12:26:31;;;;;;;25.87;15.73;;;2.10;99.90;;;;;;4959216;28;20058;-89
2021/12/21 12:29:40;;;;;;;25.60;13.90;;;2.00;99.90;;;;;;4959094;28;20095;-85
2021/12/21 12:32:12;;;;;;;29.03;13.23;;;2.60;99.90;;;;;;4958442;28;20499;-85
2021/12/21 12:35:01;;;;;;;25.17;15.03;;;2.60;99.90;;;;;;4958827;28;20483;-84
2021/12/21 12:37:27;;;;;;;25.77;13.77;;;1.80;99.90;;;;;;5017959;23;20055;-84
2021/12/21 12:40:08;;;;;;;28.40;15.00;;;2.70;99.90;;;;;;4963097;28;20051;-84
2021/12/21 12:42:39;;;;;;;26.00;15.37;;;2.30;99.90;;;;;;4958613;28;20054;-84
2021/12/21 12:45:19;;;;;;;24.07;14.97;;;2.30;99.90;;;;;;4941565;28;20043;-85
2021/12/21 12:48:01;;;;;;;26.13;15.20;;;3.90;99.90;;;;;;4958490;28;20134;-85
2021/12/21 12:50:39;;;;;;;30.50;17.23;;;2.80;99.90;;;;;;4942874;23;20130;-84
2021/12/21 12:53:06;;;;;;;29.93;18.47;;;2.90;99.90;;;;;;4919195;29;20114;-85
2021/12/21 12:55:45;;;;;;;31.47;18.17;;;3.00;99.90;;;;;;4920543;29;20054;-84
2021/12/21 12:58:22;;;;;;;25.30;17.10;;;3.10;99.90;;;;;;4920457;29;20054;-85
2021/12/21 13:01:03;;;;;;;31.93;17.60;;;3.20;99.90;;;;;;4919157;29;20040;-84
2021/12/21 13:03:50;;;;;;;29.60;17.97;;;3.30;99.90;;;;;;4959474;23;20050;-85
2021/12/21 13:06:34;;;;;;;29.83;17.90;;;3.30;99.90;;;;;;4961227;28;20051;-85
2021/12/21 13:09:12;;;;;;;33.13;20.23;;;2.70;99.90;;;;;;4958505;28;20457;-84
2021/12/21 13:11:50;;;;;;;35.97;20.83;;;4.50;99.90;;;;;;4958537;28;20475;-85
2021/12/21 13:14:17;;;;;;;28.90;17.63;;;3.30;99.90;;;;;;4961581;28;20054;-86
2021/12/21 13:16:49;;;;;;;27.27;17.27;;;4.50;99.90;;;;;;4959059;28;20113;-85
2021/12/21 13:19:18;;;;;;;26.10;16.57;;;3.40;99.90;;;;;;4957189;28;20046;-83
2021/12/21 13:21:54;;;;;;;25.50;14.50;;;3.70;99.90;;;;;;4955725;28;20130;-84
2021/12/21 13:24:22;;;;;;;26.23;14.13;;;3.70;99.90;;;;;;4956004;28;20038;-84
2021/12/21 13:26:50;;;;;;;22.83;13.20;;;3.70;99.90;;;;;;4956107;28;20121;-83
2021/12/21 13:29:19;;;;;;;23.07;13.53;;;3.70;99.90;;;;;;4953686;28;20543;-83
2021/12/21 13:31:50;;;;;;;25.70;13.57;;;3.60;99.90;;;;;;4956568;28;20043;-83
2021/12/21 13:34:17;;;;;;;25.83;13.13;;;3.60;99.90;;;;;;4955042;28;20035;-83
2021/12/21 13:36:49;;;;;;;21.27;11.50;;;3.60;99.90;;;;;;4972715;28;20046;-83
2021/12/21 13:39:19;;;;;;;22.53;12.87;;;3.60;99.90;;;;;;4957666;28;20125;-83
2021/12/21 13:41:51;;;;;;;23.60;12.53;;;3.50;99.90;;;;;;4956757;28;20454;-83
2021/12/21 13:44:28;;;;;;;21.23;13.17;;;3.60;99.90;;;;;;4973859;28;20048;-83
2021/12/21 13:46:56;;;;;;;19.83;11.80;;;3.60;99.90;;;;;;4972654;28;20462;-83
2021/12/21 13:49:21;;;;;;;22.60;13.17;;;3.40;99.90;;;;;;4956374;28;20034;-83
2021/12/21 13:51:52;;;;;;;24.50;12.63;;;3.40;99.90;;;;;;4956286;28;20046;-83
2021/12/21 13:54:19;;;;;;;20.47;11.80;;;3.30;99.90;;;;;;4956804;28;20038;-83
2021/12/21 13:56:46;;;;;;;21.70;12.63;;;3.30;99.90;;;;;;4973122;28;20162;-83
2021/12/21 13:59:13;;;;;;;23.93;13.73;;;3.10;99.90;;;;;;4956877;28;20122;-83
2021/12/21 14:01:39;;;;;;;22.10;12.77;;;3.00;99.90;;;;;;4956626;28;20047;-83
2021/12/21 14:04:11;;;;;;;24.27;13.40;;;3.00;99.90;;;;;;4973142;28;20527;-83
2021/12/21 14:06:39;;;;;;;20.00;13.00;;;2.90;99.90;;;;;;4954644;28;20039;-83
2021/12/21 14:09:08;;;;;;;21.17;13.00;;;2.90;99.90;;;;;;4956714;28;20047;-83
2021/12/21 14:11:39;;;;;;;22.30;13.23;;;2.90;99.90;;;;;;4953635;28;20077;-83
2021/12/21 14:14:18;;;;;;;26.43;14.17;;;2.70;99.90;;;;;;4973840;28;20117;-83
2021/12/21 14:16:53;;;;;;;21.67;13.37;;;2.60;99.90;;;;;;4971703;28;20055;-84
2021/12/21 14:19:23;;;;;;;25.13;14.10;;;2.50;99.90;;;;;;4955128;28;20049;-83
2021/12/21 14:21:54;;;;;;;24.63;13.50;;;2.30;99.90;;;;;;4956510;28;20047;-83
2021/12/21 14:24:23;;;;;;;25.17;13.83;;;2.20;99.90;;;;;;4951997;28;20046;-83
2021/12/21 14:26:56;;;;;;;24.50;14.00;;;2.10;99.90;;;;;;4955983;28;20050;-83
2021/12/21 14:29:28;;;;;;;26.60;14.20;;;1.90;99.90;;;;;;4972684;28;20050;-83
2021/12/21 14:32:03;;;;;;;25.70;14.70;;;1.80;99.90;;;;;;4953306;28;20047;-83
2021/12/21 14:34:40;;;;;;;27.70;14.67;;;1.70;99.90;;;;;;4956420;28;20097;-84
2021/12/21 14:37:07;;;;;;;27.57;14.33;;;1.60;99.90;;;;;;4955980;28;20130;-83
2021/12/21 14:39:33;;;;;;;28.47;15.00;;;1.50;99.90;;;;;;4953021;28;20043;-83
2021/12/21 14:42:03;;;;;;;26.97;16.07;;;1.40;99.90;;;;;;4956241;28;20047;-83
2021/12/21 14:44:31;;;;;;;24.40;15.10;;;2.30;99.90;;;;;;4973296;28;20505;-83
2021/12/21 14:47:04;;;;;;;28.87;16.00;;;1.20;99.90;;;;;;4955260;28;20121;-83
2021/12/21 14:49:44;;;;;;;26.90;15.60;;;1.10;99.90;;;;;;4956363;28;20051;-84
2021/12/21 14:52:26;;;;;;;26.93;15.73;;;1.80;99.90;;;;;;4955892;28;20049;-83
2021/12/21 14:55:05;;;;;;;27.00;15.70;;;1.50;99.90;;;;;;4956511;28;20054;-84
2021/12/21 14:57:31;;;;;;;28.63;16.10;;;0.80;99.90;;;;;;4976891;28;20042;-84
2021/12/21 14:59:57;;;;;;;28.20;16.33;;;1.10;99.90;;;;;;4955376;28;20126;-83
2021/12/21 15:02:48;;;;;;;24.33;15.20;;;0.40;99.90;;;;;;4956228;28;20137;-84
2021/12/21 15:05:10;;;;;;;25.60;15.27;;;1.60;99.90;;;;;;4974641;28;20581;-83
2021/12/21 15:07:36;;;;;;;26.70;15.43;;;0.40;99.90;;;;;;4957481;28;20055;-83
2021/12/21 15:10:05;;;;;;;27.33;16.27;;;0.30;99.90;;;;;;4955345;28;20102;-84
2021/12/21 15:12:32;;;;;;;28.33;17.07;;;0.20;99.90;;;;;;4954128;28;20117;-84
2021/12/21 15:14:58;;;;;;;25.33;16.03;;;0.10;99.90;;;;;;4954794;28;20123;-84
2021/12/21 15:17:23;;;;;;;27.67;15.93;;;0.00;99.90;;;;;;4977287;28;20043;-83
2021/12/21 15:19:50;;;;;;;26.80;15.77;;;1.00;99.90;;;;;;4961779;28;20404;-83
2021/12/21 15:22:15;;;;;;;25.83;16.03;;;1.00;99.90;;;;;;4975812;28;20147;-84
2021/12/21 15:24:41;;;;;;;27.63;15.67;;;-0.30;99.90;;;;;;4964792;28;20038;-83
2021/12/21 15:27:08;;;;;;;28.03;16.47;;;0.00;99.90;;;;;;4957585;28;20050;-84
2021/12/21 15:29:35;;;;;;;29.03;15.80;;;-0.20;99.90;;;;;;4956765;28;20042;-83
2021/12/21 15:32:02;;;;;;;29.13;16.60;;;0.60;99.90;;;;;;4955322;28;20057;-82
2021/12/21 15:34:28;;;;;;;30.43;17.23;;;-0.60;99.90;;;;;;4954826;28;20451;-82
2021/12/21 15:36:53;;;;;;;30.53;16.40;;;-0.20;99.90;;;;;;4971698;28;20043;-82
2021/12/21 15:39:21;;;;;;;24.83;15.43;;;0.30;99.90;;;;;;4955659;28;20575;-83
2021/12/21 15:41:51;;;;;;;29.00;16.17;;;0.00;99.90;;;;;;4955001;28;20055;-83
2021/12/21 15:44:22;;;;;;;24.07;15.43;;;0.20;99.90;;;;;;4956288;28;20054;-83
2021/12/21 15:46:49;;;;;;;27.77;15.43;;;0.10;99.90;;;;;;4973071;28;20039;-83
2021/12/21 15:49:16;;;;;;;28.43;15.90;;;-1.00;99.90;;;;;;4958822;28;20046;-83
2021/12/21 15:51:41;;;;;;;27.10;15.37;;;0.00;99.90;;;;;;4958778;28;20480;-85
2021/12/21 15:54:07;;;;;;;31.47;17.43;;;-1.20;99.90;;;;;;4959637;28;20129;-84
2021/12/21 15:56:32;;;;;;;31.63;18.27;;;-1.00;99.90;;;;;;4976173;28;20051;-84
2021/12/21 15:58:58;;;;;;;32.13;21.20;;;-1.30;99.90;;;;;;4959270;28;20035;-85
2021/12/21 16:01:23;;;;;;;34.13;21.03;;;-0.60;99.90;;;;;;4959861;28;20047;-84
2021/12/21 16:03:49;;;;;;;32.07;20.43;;;-1.40;99.90;;;;;;4975638;28;20051;-84
2021/12/21 16:06:17;;;;;;;33.70;19.70;;;-1.40;99.90;;;;;;4959476;28;20118;-83
2021/12/21 16:08:43;;;;;;;34.23;19.20;;;-0.50;99.90;;;;;;4958997;28;20054;-82
2021/12/21 16:11:09;;;;;;;32.43;18.97;;;-1.50;99.90;;;;;;4958637;28;20050;-82
2021/12/21 16:13:34;;;;;;;31.20;18.27;;;-1.60;99.90;;;;;;4958852;28;20054;-83
2021/12/21 16:16:00;;;;;;;30.43;19.07;;;-1.60;99.90;;;;;;4975812;28;20051;-83
2021/12/21 16:18:26;;;;;;;34.20;18.50;;;-1.50;99.90;;;;;;4976556;28;20190;-82
2021/12/21 16:20:51;;;;;;;36.60;20.97;;;-1.70;99.90;;;;;;4977128;28;20143;-83
2021/12/21 16:23:17;;;;;;;31.87;19.53;;;-1.70;99.90;;;;;;4976253;28;20058;-82
2021/12/21 16:25:43;;;;;;;38.30;20.03;;;-0.80;99.90;;;;;;4958696;28;20049;-82
2021/12/21 16:28:09;;;;;;;36.10;20.43;;;-1.60;99.90;;;;;;4975551;28;20137;-82
2021/12/21 16:30:47;;;;;;;32.40;18.87;;;-0.60;99.90;;;;;;4975534;28;20137;-83
2021/12/21 16:33:15;;;;;;;33.03;18.93;;;-1.80;99.90;;;;;;4976409;28;20479;-82
2021/12/21 16:35:41;;;;;;;32.97;19.37;;;-1.90;99.90;;;;;;4976201;28;20050;-83
2021/12/21 16:38:08;;;;;;;34.33;20.53;;;-1.70;99.90;;;;;;4975295;28;20050;-83